Aviano Air Base LIPA

Flugplatz Daten

Name: Aviano Air Base

Ident: LIPA

Lat: 46,0318985

Long: 12,5965004

Platzhöhe: 410 ft

IataCode: AVB

City: Aviano

Homepage: http://www.aviano.af.mil/

Metar

2021/08/05 14:55
LIPA 051455Z 21008KT 9999 FEW035CB SCT040 27/18 Q1005 RMK SCT VIS MIN 9999 WIND THR05 /////KT WIND THR23 /////KT A2969 BLU

Taf

2015/11/03 12:24
TAF TAF LIPA 031100Z 0312/0324 VRB03KT CAVOK
Gewünschte Webcam nicht vorhanden? Dann fügen Sie eine hinzu. Sie wird dann so schnell wie möglich freigeschaltet
Url: Title: